sensor_id;sensor_type;location;lat;lon;timestamp;P1;durP1;ratioP1;P2;durP2;ratioP2
17850;SDS011;9051;51.548;14.348;2022-08-03T00:00:54;3.67;;;3.33;;
17850;SDS011;9051;51.548;14.348;2022-08-03T00:03:28;3.45;;;3.15;;
17850;SDS011;9051;51.548;14.348;2022-08-03T00:06:00;4.68;;;3.08;;
17850;SDS011;9051;51.548;14.348;2022-08-03T00:08:32;4.38;;;3.85;;
17850;SDS011;9051;51.548;14.348;2022-08-03T00:11:05;3.67;;;3.33;;
17850;SDS011;9051;51.548;14.348;2022-08-03T00:13:37;3.83;;;3.53;;
17850;SDS011;9051;51.548;14.348;2022-08-03T00:16:12;3.75;;;3.30;;
17850;SDS011;9051;51.548;14.348;2022-08-03T00:18:46;3.72;;;3.42;;
17850;SDS011;9051;51.548;14.348;2022-08-03T00:21:18;5.82;;;3.78;;
17850;SDS011;9051;51.548;14.348;2022-08-03T00:23:50;3.67;;;3.38;;
17850;SDS011;9051;51.548;14.348;2022-08-03T00:26:24;3.60;;;3.30;;
17850;SDS011;9051;51.548;14.348;2022-08-03T00:28:56;3.75;;;3.53;;
17850;SDS011;9051;51.548;14.348;2022-08-03T00:31:28;6.75;;;3.63;;
17850;SDS011;9051;51.548;14.348;2022-08-03T00:34:04;4.25;;;3.80;;
17850;SDS011;9051;51.548;14.348;2022-08-03T00:36:35;3.78;;;3.47;;
17850;SDS011;9051;51.548;14.348;2022-08-03T00:39:08;3.58;;;3.28;;
17850;SDS011;9051;51.548;14.348;2022-08-03T00:41:40;3.97;;;3.67;;
17850;SDS011;9051;51.548;14.348;2022-08-03T00:44:12;4.18;;;3.78;;
17850;SDS011;9051;51.548;14.348;2022-08-03T00:46:44;4.05;;;3.75;;
17850;SDS011;9051;51.548;14.348;2022-08-03T00:49:18;4.97;;;4.00;;
17850;SDS011;9051;51.548;14.348;2022-08-03T00:51:50;4.07;;;3.67;;
17850;SDS011;9051;51.548;14.348;2022-08-03T00:54:22;3.78;;;3.47;;
17850;SDS011;9051;51.548;14.348;2022-08-03T00:56:56;4.75;;;3.80;;
17850;SDS011;9051;51.548;14.348;2022-08-03T00:59:28;4.35;;;3.85;;
17850;SDS011;9051;51.548;14.348;2022-08-03T01:02:01;4.20;;;3.80;;
17850;SDS011;9051;51.548;14.348;2022-08-03T01:04:35;5.80;;;4.07;;
17850;SDS011;9051;51.548;14.348;2022-08-03T01:07:09;4.10;;;3.80;;
17850;SDS011;9051;51.548;14.348;2022-08-03T01:09:50;4.20;;;3.80;;
17850;SDS011;9051;51.548;14.348;2022-08-03T01:12:28;5.38;;;3.95;;
17850;SDS011;9051;51.548;14.348;2022-08-03T01:15:09;4.53;;;4.20;;
17850;SDS011;9051;51.548;14.348;2022-08-03T01:17:48;4.65;;;4.20;;
17850;SDS011;9051;51.548;14.348;2022-08-03T01:20:23;4.10;;;3.80;;
17850;SDS011;9051;51.548;14.348;2022-08-03T01:23:05;3.83;;;3.55;;
17850;SDS011;9051;51.548;14.348;2022-08-03T01:25:58;4.30;;;3.90;;
17850;SDS011;9051;51.548;14.348;2022-08-03T01:29:03;4.80;;;4.40;;
17850;SDS011;9051;51.548;14.348;2022-08-03T01:31:52;4.13;;;3.70;;
17850;SDS011;9051;51.548;14.348;2022-08-03T01:34:31;4.60;;;4.10;;
17850;SDS011;9051;51.548;14.348;2022-08-03T01:37:09;4.15;;;3.75;;
17850;SDS011;9051;51.548;14.348;2022-08-03T01:39:44;4.07;;;3.78;;
17850;SDS011;9051;51.548;14.348;2022-08-03T01:42:17;4.38;;;4.03;;
17850;SDS011;9051;51.548;14.348;2022-08-03T01:44:50;4.40;;;4.00;;
17850;SDS011;9051;51.548;14.348;2022-08-03T01:47:24;4.70;;;4.10;;
17850;SDS011;9051;51.548;14.348;2022-08-03T01:49:58;4.72;;;4.10;;
17850;SDS011;9051;51.548;14.348;2022-08-03T01:52:32;4.78;;;4.15;;
17850;SDS011;9051;51.548;14.348;2022-08-03T01:55:06;4.43;;;4.07;;
17850;SDS011;9051;51.548;14.348;2022-08-03T01:57:39;4.35;;;4.05;;
17850;SDS011;9051;51.548;14.348;2022-08-03T02:00:14;5.03;;;4.63;;
17850;SDS011;9051;51.548;14.348;2022-08-03T02:02:49;4.57;;;4.17;;
17850;SDS011;9051;51.548;14.348;2022-08-03T02:05:24;4.83;;;4.40;;
17850;SDS011;9051;51.548;14.348;2022-08-03T02:07:58;4.55;;;4.25;;
17850;SDS011;9051;51.548;14.348;2022-08-03T02:10:31;4.40;;;4.10;;
17850;SDS011;9051;51.548;14.348;2022-08-03T02:13:06;4.93;;;4.53;;
17850;SDS011;9051;51.548;14.348;2022-08-03T02:15:39;5.73;;;4.83;;
17850;SDS011;9051;51.548;14.348;2022-08-03T02:18:16;5.35;;;4.90;;
17850;SDS011;9051;51.548;14.348;2022-08-03T02:20:49;4.70;;;4.30;;
17850;SDS011;9051;51.548;14.348;2022-08-03T02:23:21;5.27;;;4.87;;
17850;SDS011;9051;51.548;14.348;2022-08-03T02:25:55;5.93;;;5.47;;
17850;SDS011;9051;51.548;14.348;2022-08-03T02:28:31;5.40;;;4.93;;
17850;SDS011;9051;51.548;14.348;2022-08-03T02:31:07;6.20;;;5.60;;
17850;SDS011;9051;51.548;14.348;2022-08-03T02:33:47;5.30;;;4.87;;
17850;SDS011;9051;51.548;14.348;2022-08-03T02:36:23;5.43;;;5.03;;
17850;SDS011;9051;51.548;14.348;2022-08-03T02:38:58;5.60;;;5.07;;
17850;SDS011;9051;51.548;14.348;2022-08-03T02:41:34;5.88;;;5.38;;
17850;SDS011;9051;51.548;14.348;2022-08-03T02:44:12;5.87;;;5.27;;
17850;SDS011;9051;51.548;14.348;2022-08-03T02:46:48;5.47;;;5.03;;
17850;SDS011;9051;51.548;14.348;2022-08-03T02:49:27;6.20;;;5.60;;
17850;SDS011;9051;51.548;14.348;2022-08-03T02:52:00;6.20;;;5.60;;
17850;SDS011;9051;51.548;14.348;2022-08-03T02:54:34;5.60;;;5.10;;
17850;SDS011;9051;51.548;14.348;2022-08-03T02:57:08;6.40;;;5.80;;
17850;SDS011;9051;51.548;14.348;2022-08-03T02:59:43;6.17;;;5.67;;
17850;SDS011;9051;51.548;14.348;2022-08-03T03:02:16;6.40;;;5.70;;
17850;SDS011;9051;51.548;14.348;2022-08-03T03:04:51;6.30;;;5.80;;
17850;SDS011;9051;51.548;14.348;2022-08-03T03:07:25;6.63;;;5.90;;
17850;SDS011;9051;51.548;14.348;2022-08-03T03:09:57;7.97;;;6.40;;
17850;SDS011;9051;51.548;14.348;2022-08-03T03:12:30;6.40;;;5.80;;
17850;SDS011;9051;51.548;14.348;2022-08-03T03:15:04;6.50;;;5.60;;
17850;SDS011;9051;51.548;14.348;2022-08-03T03:17:37;7.37;;;6.20;;
17850;SDS011;9051;51.548;14.348;2022-08-03T03:20:12;7.30;;;6.20;;
17850;SDS011;9051;51.548;14.348;2022-08-03T03:22:47;6.60;;;6.10;;
17850;SDS011;9051;51.548;14.348;2022-08-03T03:25:21;7.07;;;6.37;;
17850;SDS011;9051;51.548;14.348;2022-08-03T03:27:55;6.43;;;5.73;;
17850;SDS011;9051;51.548;14.348;2022-08-03T03:30:27;7.00;;;6.13;;
17850;SDS011;9051;51.548;14.348;2022-08-03T03:33:00;6.80;;;6.30;;
17850;SDS011;9051;51.548;14.348;2022-08-03T03:35:34;7.40;;;6.00;;
17850;SDS011;9051;51.548;14.348;2022-08-03T03:38:06;6.77;;;6.07;;
17850;SDS011;9051;51.548;14.348;2022-08-03T03:40:39;7.27;;;6.67;;
17850;SDS011;9051;51.548;14.348;2022-08-03T03:43:12;7.10;;;6.50;;
17850;SDS011;9051;51.548;14.348;2022-08-03T03:45:44;6.93;;;6.33;;
17850;SDS011;9051;51.548;14.348;2022-08-03T03:48:18;6.67;;;6.17;;
17850;SDS011;9051;51.548;14.348;2022-08-03T03:50:52;6.93;;;6.30;;
17850;SDS011;9051;51.548;14.348;2022-08-03T03:53:26;6.93;;;6.10;;
17850;SDS011;9051;51.548;14.348;2022-08-03T03:55:58;6.80;;;6.10;;
17850;SDS011;9051;51.548;14.348;2022-08-03T03:58:31;7.43;;;6.73;;
17850;SDS011;9051;51.548;14.348;2022-08-03T04:01:04;6.93;;;6.30;;
17850;SDS011;9051;51.548;14.348;2022-08-03T04:03:37;7.57;;;6.67;;
17850;SDS011;9051;51.548;14.348;2022-08-03T04:06:12;7.13;;;6.43;;
17850;SDS011;9051;51.548;14.348;2022-08-03T04:09:02;7.53;;;6.93;;
17850;SDS011;9051;51.548;14.348;2022-08-03T04:11:51;7.17;;;6.47;;
17850;SDS011;9051;51.548;14.348;2022-08-03T04:14:25;7.63;;;7.00;;
17850;SDS011;9051;51.548;14.348;2022-08-03T04:17:00;7.47;;;6.77;;
17850;SDS011;9051;51.548;14.348;2022-08-03T04:19:34;9.70;;;7.30;;
17850;SDS011;9051;51.548;14.348;2022-08-03T04:22:13;7.40;;;6.70;;
17850;SDS011;9051;51.548;14.348;2022-08-03T04:24:51;7.40;;;6.70;;
17850;SDS011;9051;51.548;14.348;2022-08-03T04:27:28;6.83;;;6.30;;
17850;SDS011;9051;51.548;14.348;2022-08-03T04:30:04;6.97;;;6.37;;
17850;SDS011;9051;51.548;14.348;2022-08-03T04:32:37;7.20;;;6.50;;
17850;SDS011;9051;51.548;14.348;2022-08-03T04:35:09;7.63;;;6.27;;
17850;SDS011;9051;51.548;14.348;2022-08-03T04:37:44;7.00;;;6.40;;
17850;SDS011;9051;51.548;14.348;2022-08-03T04:40:19;7.20;;;6.60;;
17850;SDS011;9051;51.548;14.348;2022-08-03T04:42:52;6.83;;;6.03;;
17850;SDS011;9051;51.548;14.348;2022-08-03T04:45:27;7.27;;;6.63;;
17850;SDS011;9051;51.548;14.348;2022-08-03T04:48:02;7.67;;;6.87;;
17850;SDS011;9051;51.548;14.348;2022-08-03T04:50:36;7.23;;;6.53;;
17850;SDS011;9051;51.548;14.348;2022-08-03T04:53:10;7.77;;;6.27;;
17850;SDS011;9051;51.548;14.348;2022-08-03T04:55:43;7.50;;;6.83;;
17850;SDS011;9051;51.548;14.348;2022-08-03T04:58:15;7.37;;;6.13;;
17850;SDS011;9051;51.548;14.348;2022-08-03T05:00:47;7.03;;;6.43;;
17850;SDS011;9051;51.548;14.348;2022-08-03T05:03:21;8.93;;;6.57;;
17850;SDS011;9051;51.548;14.348;2022-08-03T05:05:54;7.10;;;6.50;;
17850;SDS011;9051;51.548;14.348;2022-08-03T05:08:28;6.87;;;5.97;;
17850;SDS011;9051;51.548;14.348;2022-08-03T05:11:01;7.10;;;6.40;;
17850;SDS011;9051;51.548;14.348;2022-08-03T05:13:33;6.70;;;6.10;;
17850;SDS011;9051;51.548;14.348;2022-08-03T05:16:05;6.65;;;6.05;;
17850;SDS011;9051;51.548;14.348;2022-08-03T05:18:37;7.17;;;6.47;;
17850;SDS011;9051;51.548;14.348;2022-08-03T05:21:10;6.63;;;6.13;;
17850;SDS011;9051;51.548;14.348;2022-08-03T05:23:44;6.53;;;5.93;;
17850;SDS011;9051;51.548;14.348;2022-08-03T05:26:16;7.10;;;6.40;;
17850;SDS011;9051;51.548;14.348;2022-08-03T05:28:48;7.43;;;6.73;;
17850;SDS011;9051;51.548;14.348;2022-08-03T05:31:22;7.17;;;6.47;;
17850;SDS011;9051;51.548;14.348;2022-08-03T05:33:55;6.97;;;6.47;;
17850;SDS011;9051;51.548;14.348;2022-08-03T05:36:31;6.57;;;5.97;;
17850;SDS011;9051;51.548;14.348;2022-08-03T05:39:04;6.05;;;5.55;;
17850;SDS011;9051;51.548;14.348;2022-08-03T05:41:36;6.57;;;5.97;;
17850;SDS011;9051;51.548;14.348;2022-08-03T05:44:08;6.38;;;5.75;;
17850;SDS011;9051;51.548;14.348;2022-08-03T05:46:40;6.72;;;6.18;;
17850;SDS011;9051;51.548;14.348;2022-08-03T05:49:12;6.35;;;5.85;;
17850;SDS011;9051;51.548;14.348;2022-08-03T05:51:44;7.00;;;6.07;;
17850;SDS011;9051;51.548;14.348;2022-08-03T05:54:18;5.93;;;5.28;;
17850;SDS011;9051;51.548;14.348;2022-08-03T05:56:50;6.95;;;6.15;;
17850;SDS011;9051;51.548;14.348;2022-08-03T05:59:22;8.73;;;5.95;;
17850;SDS011;9051;51.548;14.348;2022-08-03T06:01:54;6.22;;;5.63;;
17850;SDS011;9051;51.548;14.348;2022-08-03T06:04:26;5.55;;;4.95;;
17850;SDS011;9051;51.548;14.348;2022-08-03T06:06:58;8.00;;;6.00;;
17850;SDS011;9051;51.548;14.348;2022-08-03T06:09:32;6.03;;;5.43;;
17850;SDS011;9051;51.548;14.348;2022-08-03T06:12:04;6.32;;;5.20;;
17850;SDS011;9051;51.548;14.348;2022-08-03T06:14:37;5.85;;;5.25;;
17850;SDS011;9051;51.548;14.348;2022-08-03T06:17:10;6.47;;;5.82;;
17850;SDS011;9051;51.548;14.348;2022-08-03T06:19:42;8.65;;;5.50;;
17850;SDS011;9051;51.548;14.348;2022-08-03T06:22:14;8.63;;;5.50;;
17850;SDS011;9051;51.548;14.348;2022-08-03T06:24:49;6.05;;;5.45;;
17850;SDS011;9051;51.548;14.348;2022-08-03T06:27:20;6.57;;;5.15;;
17850;SDS011;9051;51.548;14.348;2022-08-03T06:29:52;5.45;;;4.75;;
17850;SDS011;9051;51.548;14.348;2022-08-03T06:32:24;5.20;;;4.70;;
17850;SDS011;9051;51.548;14.348;2022-08-03T06:34:57;5.15;;;4.22;;
17850;SDS011;9051;51.548;14.348;2022-08-03T06:37:30;5.07;;;4.45;;
17850;SDS011;9051;51.548;14.348;2022-08-03T06:40:23;4.95;;;4.45;;
17850;SDS011;9051;51.548;14.348;2022-08-03T06:43:00;4.95;;;4.10;;
17850;SDS011;9051;51.548;14.348;2022-08-03T06:45:33;5.35;;;4.22;;
17850;SDS011;9051;51.548;14.348;2022-08-03T06:48:06;4.35;;;4.00;;
17850;SDS011;9051;51.548;14.348;2022-08-03T06:50:40;4.57;;;4.18;;
17850;SDS011;9051;51.548;14.348;2022-08-03T06:53:13;4.93;;;4.47;;
17850;SDS011;9051;51.548;14.348;2022-08-03T06:55:48;5.57;;;4.80;;
17850;SDS011;9051;51.548;14.348;2022-08-03T06:58:20;6.45;;;4.60;;
17850;SDS011;9051;51.548;14.348;2022-08-03T07:00:52;5.80;;;4.95;;
17850;SDS011;9051;51.548;14.348;2022-08-03T07:03:24;8.90;;;4.88;;
17850;SDS011;9051;51.548;14.348;2022-08-03T07:05:56;7.15;;;5.10;;
17850;SDS011;9051;51.548;14.348;2022-08-03T07:08:28;5.78;;;4.90;;
17850;SDS011;9051;51.548;14.348;2022-08-03T07:11:01;6.80;;;5.20;;
17850;SDS011;9051;51.548;14.348;2022-08-03T07:13:33;7.05;;;4.75;;
17850;SDS011;9051;51.548;14.348;2022-08-03T07:16:05;8.00;;;5.32;;
17850;SDS011;9051;51.548;14.348;2022-08-03T07:18:38;4.70;;;4.00;;
17850;SDS011;9051;51.548;14.348;2022-08-03T07:21:10;6.32;;;4.68;;
17850;SDS011;9051;51.548;14.348;2022-08-03T07:23:42;4.03;;;3.63;;
17850;SDS011;9051;51.548;14.348;2022-08-03T07:26:15;3.78;;;3.47;;
17850;SDS011;9051;51.548;14.348;2022-08-03T07:28:47;4.25;;;3.28;;
17850;SDS011;9051;51.548;14.348;2022-08-03T07:31:22;4.43;;;3.13;;
17850;SDS011;9051;51.548;14.348;2022-08-03T07:33:53;4.47;;;3.47;;
17850;SDS011;9051;51.548;14.348;2022-08-03T07:36:26;5.07;;;3.88;;
17850;SDS011;9051;51.548;14.348;2022-08-03T07:38:59;3.88;;;3.55;;
17850;SDS011;9051;51.548;14.348;2022-08-03T07:41:33;3.50;;;3.17;;
17850;SDS011;9051;51.548;14.348;2022-08-03T07:44:06;3.88;;;3.58;;
17850;SDS011;9051;51.548;14.348;2022-08-03T07:46:38;3.95;;;3.13;;
17850;SDS011;9051;51.548;14.348;2022-08-03T07:49:12;5.78;;;3.45;;
17850;SDS011;9051;51.548;14.348;2022-08-03T07:51:44;3.80;;;3.50;;
17850;SDS011;9051;51.548;14.348;2022-08-03T07:54:36;4.40;;;4.00;;
17850;SDS011;9051;51.548;14.348;2022-08-03T07:57:10;6.57;;;4.40;;
17850;SDS011;9051;51.548;14.348;2022-08-03T07:59:42;4.72;;;3.88;;
17850;SDS011;9051;51.548;14.348;2022-08-03T08:02:16;4.35;;;3.90;;
17850;SDS011;9051;51.548;14.348;2022-08-03T08:04:48;4.00;;;3.70;;
17850;SDS011;9051;51.548;14.348;2022-08-03T08:07:20;4.13;;;3.70;;
17850;SDS011;9051;51.548;14.348;2022-08-03T08:09:52;5.82;;;4.47;;
17850;SDS011;9051;51.548;14.348;2022-08-03T08:12:27;4.88;;;4.22;;
17850;SDS011;9051;51.548;14.348;2022-08-03T08:15:05;5.80;;;4.05;;
17850;SDS011;9051;51.548;14.348;2022-08-03T08:17:42;4.90;;;4.00;;
17850;SDS011;9051;51.548;14.348;2022-08-03T08:20:17;4.32;;;3.92;;
17850;SDS011;9051;51.548;14.348;2022-08-03T08:22:52;4.32;;;3.90;;
17850;SDS011;9051;51.548;14.348;2022-08-03T08:25:28;4.45;;;3.95;;
17850;SDS011;9051;51.548;14.348;2022-08-03T08:28:08;4.65;;;4.10;;
17850;SDS011;9051;51.548;14.348;2022-08-03T08:30:40;6.25;;;4.32;;
17850;SDS011;9051;51.548;14.348;2022-08-03T08:33:12;4.07;;;3.42;;
17850;SDS011;9051;51.548;14.348;2022-08-03T08:35:44;4.25;;;3.85;;
17850;SDS011;9051;51.548;14.348;2022-08-03T08:38:16;4.82;;;3.97;;
17850;SDS011;9051;51.548;14.348;2022-08-03T08:40:49;7.45;;;4.32;;
17850;SDS011;9051;51.548;14.348;2022-08-03T08:43:24;4.13;;;3.72;;
17850;SDS011;9051;51.548;14.348;2022-08-03T08:45:56;4.65;;;3.95;;
17850;SDS011;9051;51.548;14.348;2022-08-03T08:48:30;4.35;;;3.95;;
17850;SDS011;9051;51.548;14.348;2022-08-03T08:51:02;4.25;;;3.85;;
17850;SDS011;9051;51.548;14.348;2022-08-03T08:53:35;4.45;;;3.50;;
17850;SDS011;9051;51.548;14.348;2022-08-03T08:56:10;4.25;;;3.45;;
17850;SDS011;9051;51.548;14.348;2022-08-03T08:58:50;3.65;;;3.35;;
17850;SDS011;9051;51.548;14.348;2022-08-03T09:01:24;3.67;;;3.33;;
17850;SDS011;9051;51.548;14.348;2022-08-03T09:03:58;3.97;;;3.58;;
17850;SDS011;9051;51.548;14.348;2022-08-03T09:06:30;4.95;;;3.30;;
17850;SDS011;9051;51.548;14.348;2022-08-03T09:09:02;3.30;;;3.03;;
17850;SDS011;9051;51.548;14.348;2022-08-03T09:11:40;3.10;;;2.85;;
17850;SDS011;9051;51.548;14.348;2022-08-03T09:14:14;3.15;;;2.80;;
17850;SDS011;9051;51.548;14.348;2022-08-03T09:16:56;4.32;;;3.15;;
17850;SDS011;9051;51.548;14.348;2022-08-03T09:19:31;5.18;;;3.42;;
17850;SDS011;9051;51.548;14.348;2022-08-03T09:22:08;3.10;;;2.90;;
17850;SDS011;9051;51.548;14.348;2022-08-03T09:24:52;2.92;;;2.50;;
17850;SDS011;9051;51.548;14.348;2022-08-03T09:27:26;2.70;;;2.50;;
17850;SDS011;9051;51.548;14.348;2022-08-03T09:30:00;4.78;;;2.55;;
17850;SDS011;9051;51.548;14.348;2022-08-03T09:32:43;3.03;;;2.47;;
17850;SDS011;9051;51.548;14.348;2022-08-03T09:35:15;4.50;;;2.72;;
17850;SDS011;9051;51.548;14.348;2022-08-03T09:38:12;3.00;;;2.80;;
17850;SDS011;9051;51.548;14.348;2022-08-03T09:40:45;2.78;;;2.58;;
17850;SDS011;9051;51.548;14.348;2022-08-03T09:43:17;3.20;;;3.00;;
17850;SDS011;9051;51.548;14.348;2022-08-03T09:45:50;4.30;;;2.90;;
17850;SDS011;9051;51.548;14.348;2022-08-03T09:48:33;3.00;;;2.80;;
17850;SDS011;9051;51.548;14.348;2022-08-03T09:51:06;3.80;;;2.80;;
17850;SDS011;9051;51.548;14.348;2022-08-03T09:53:41;2.88;;;2.67;;
17850;SDS011;9051;51.548;14.348;2022-08-03T09:56:13;2.70;;;2.50;;
17850;SDS011;9051;51.548;14.348;2022-08-03T09:58:47;2.97;;;2.78;;
17850;SDS011;9051;51.548;14.348;2022-08-03T10:01:21;2.88;;;2.53;;
17850;SDS011;9051;51.548;14.348;2022-08-03T10:04:04;3.28;;;2.80;;
17850;SDS011;9051;51.548;14.348;2022-08-03T10:06:36;2.80;;;2.60;;
17850;SDS011;9051;51.548;14.348;2022-08-03T10:09:09;2.85;;;2.65;;
17850;SDS011;9051;51.548;14.348;2022-08-03T10:11:43;3.20;;;3.00;;
17850;SDS011;9051;51.548;14.348;2022-08-03T10:14:16;3.08;;;2.53;;
17850;SDS011;9051;51.548;14.348;2022-08-03T10:16:50;3.45;;;2.72;;
17850;SDS011;9051;51.548;14.348;2022-08-03T10:19:22;4.30;;;2.92;;
17850;SDS011;9051;51.548;14.348;2022-08-03T10:21:55;3.03;;;2.83;;
17850;SDS011;9051;51.548;14.348;2022-08-03T10:24:33;2.88;;;2.67;;
17850;SDS011;9051;51.548;14.348;2022-08-03T10:30:10;2.90;;;2.67;;
17850;SDS011;9051;51.548;14.348;2022-08-03T10:32:46;3.13;;;2.83;;
17850;SDS011;9051;51.548;14.348;2022-08-03T10:35:21;3.22;;;2.92;;
17850;SDS011;9051;51.548;14.348;2022-08-03T10:37:56;3.13;;;2.70;;
17850;SDS011;9051;51.548;14.348;2022-08-03T10:40:30;4.35;;;2.60;;
17850;SDS011;9051;51.548;14.348;2022-08-03T10:43:05;3.28;;;2.90;;
17850;SDS011;9051;51.548;14.348;2022-08-03T10:45:40;3.08;;;2.80;;
17850;SDS011;9051;51.548;14.348;2022-08-03T10:48:15;3.20;;;2.92;;
17850;SDS011;9051;51.548;14.348;2022-08-03T10:50:48;3.03;;;2.50;;
17850;SDS011;9051;51.548;14.348;2022-08-03T11:05:40;2.88;;;2.67;;
17850;SDS011;9051;51.548;14.348;2022-08-03T11:08:17;2.67;;;2.47;;
17850;SDS011;9051;51.548;14.348;2022-08-03T11:10:58;3.40;;;2.80;;
17850;SDS011;9051;51.548;14.348;2022-08-03T11:13:36;4.30;;;2.83;;
17850;SDS011;9051;51.548;14.348;2022-08-03T11:16:21;3.00;;;2.75;;
17850;SDS011;9051;51.548;14.348;2022-08-03T11:18:57;2.80;;;2.60;;
17850;SDS011;9051;51.548;14.348;2022-08-03T11:27:32;4.35;;;2.72;;
17850;SDS011;9051;51.548;14.348;2022-08-03T11:30:05;3.75;;;2.90;;
17850;SDS011;9051;51.548;14.348;2022-08-03T11:32:56;2.95;;;2.75;;
17850;SDS011;9051;51.548;14.348;2022-08-03T11:35:29;2.80;;;2.60;;
17850;SDS011;9051;51.548;14.348;2022-08-03T11:38:10;4.18;;;3.15;;
17850;SDS011;9051;51.548;14.348;2022-08-03T11:40:43;5.57;;;2.97;;
17850;SDS011;9051;51.548;14.348;2022-08-03T11:46:14;2.80;;;2.60;;
17850;SDS011;9051;51.548;14.348;2022-08-03T11:48:50;4.03;;;2.72;;
17850;SDS011;9051;51.548;14.348;2022-08-03T11:51:28;2.90;;;2.70;;
17850;SDS011;9051;51.548;14.348;2022-08-03T11:54:04;2.83;;;2.38;;
17850;SDS011;9051;51.548;14.348;2022-08-03T11:56:43;3.00;;;2.80;;
17850;SDS011;9051;51.548;14.348;2022-08-03T11:59:17;3.50;;;2.47;;
17850;SDS011;9051;51.548;14.348;2022-08-03T12:01:49;2.95;;;2.75;;
17850;SDS011;9051;51.548;14.348;2022-08-03T12:04:21;3.80;;;3.13;;
17850;SDS011;9051;51.548;14.348;2022-08-03T12:06:59;3.50;;;3.20;;
17850;SDS011;9051;51.548;14.348;2022-08-03T12:09:35;3.42;;;3.13;;
17850;SDS011;9051;51.548;14.348;2022-08-03T12:12:12;3.15;;;2.90;;
17850;SDS011;9051;51.548;14.348;2022-08-03T12:14:46;3.08;;;2.80;;
17850;SDS011;9051;51.548;14.348;2022-08-03T12:17:19;3.50;;;3.20;;
17850;SDS011;9051;51.548;14.348;2022-08-03T12:19:51;3.42;;;3.13;;
17850;SDS011;9051;51.548;14.348;2022-08-03T12:22:29;6.45;;;2.88;;
17850;SDS011;9051;51.548;14.348;2022-08-03T12:25:04;3.58;;;2.72;;
17850;SDS011;9051;51.548;14.348;2022-08-03T12:27:37;3.20;;;2.90;;
17850;SDS011;9051;51.548;14.348;2022-08-03T12:30:09;2.78;;;2.58;;
17850;SDS011;9051;51.548;14.348;2022-08-03T12:32:42;3.30;;;2.97;;
17850;SDS011;9051;51.548;14.348;2022-08-03T12:35:21;2.80;;;2.60;;
17850;SDS011;9051;51.548;14.348;2022-08-03T12:37:54;3.63;;;2.80;;
17850;SDS011;9051;51.548;14.348;2022-08-03T12:40:29;3.40;;;3.10;;
17850;SDS011;9051;51.548;14.348;2022-08-03T12:43:04;6.35;;;2.80;;
17850;SDS011;9051;51.548;14.348;2022-08-03T12:45:41;3.40;;;3.10;;
17850;SDS011;9051;51.548;14.348;2022-08-03T12:48:13;3.17;;;2.78;;
17850;SDS011;9051;51.548;14.348;2022-08-03T12:50:45;3.53;;;2.60;;
17850;SDS011;9051;51.548;14.348;2022-08-03T12:53:26;2.72;;;2.38;;
17850;SDS011;9051;51.548;14.348;2022-08-03T12:56:02;3.17;;;2.95;;
17850;SDS011;9051;51.548;14.348;2022-08-03T12:58:35;3.05;;;2.80;;
17850;SDS011;9051;51.548;14.348;2022-08-03T13:01:07;2.72;;;2.53;;
17850;SDS011;9051;51.548;14.348;2022-08-03T13:03:40;2.90;;;2.70;;
17850;SDS011;9051;51.548;14.348;2022-08-03T13:06:13;3.05;;;2.65;;
17850;SDS011;9051;51.548;14.348;2022-08-03T13:08:46;2.90;;;2.70;;
17850;SDS011;9051;51.548;14.348;2022-08-03T13:11:21;2.75;;;2.47;;
17850;SDS011;9051;51.548;14.348;2022-08-03T13:13:54;2.95;;;2.67;;
17850;SDS011;9051;51.548;14.348;2022-08-03T13:16:26;3.05;;;2.85;;
17850;SDS011;9051;51.548;14.348;2022-08-03T13:18:58;3.00;;;2.75;;
17850;SDS011;9051;51.548;14.348;2022-08-03T13:21:31;2.78;;;2.58;;
17850;SDS011;9051;51.548;14.348;2022-08-03T13:24:03;2.90;;;2.70;;
17850;SDS011;9051;51.548;14.348;2022-08-03T13:26:37;3.92;;;2.60;;
17850;SDS011;9051;51.548;14.348;2022-08-03T13:29:09;3.20;;;2.90;;
17850;SDS011;9051;51.548;14.348;2022-08-03T13:31:41;3.45;;;2.47;;
17850;SDS011;9051;51.548;14.348;2022-08-03T13:34:13;2.83;;;2.63;;
17850;SDS011;9051;51.548;14.348;2022-08-03T13:36:45;3.08;;;2.78;;
17850;SDS011;9051;51.548;14.348;2022-08-03T13:39:17;2.80;;;2.60;;
17850;SDS011;9051;51.548;14.348;2022-08-03T13:41:51;2.97;;;2.72;;
17850;SDS011;9051;51.548;14.348;2022-08-03T13:44:25;2.90;;;2.70;;
17850;SDS011;9051;51.548;14.348;2022-08-03T13:46:57;2.90;;;2.60;;
17850;SDS011;9051;51.548;14.348;2022-08-03T13:49:29;3.20;;;2.70;;
17850;SDS011;9051;51.548;14.348;2022-08-03T13:52:03;2.88;;;2.67;;
17850;SDS011;9051;51.548;14.348;2022-08-03T13:54:35;3.03;;;2.80;;
17850;SDS011;9051;51.548;14.348;2022-08-03T13:57:08;2.58;;;2.45;;
17850;SDS011;9051;51.548;14.348;2022-08-03T13:59:40;2.75;;;2.30;;
17850;SDS011;9051;51.548;14.348;2022-08-03T14:02:13;2.85;;;2.65;;
17850;SDS011;9051;51.548;14.348;2022-08-03T14:04:44;2.90;;;2.70;;
17850;SDS011;9051;51.548;14.348;2022-08-03T14:07:16;2.72;;;2.53;;
17850;SDS011;9051;51.548;14.348;2022-08-03T14:09:48;3.92;;;2.80;;
17850;SDS011;9051;51.548;14.348;2022-08-03T14:12:22;2.95;;;2.75;;
17850;SDS011;9051;51.548;14.348;2022-08-03T14:14:54;5.70;;;2.63;;
17850;SDS011;9051;51.548;14.348;2022-08-03T14:17:26;3.10;;;2.90;;
17850;SDS011;9051;51.548;14.348;2022-08-03T14:19:57;2.78;;;2.58;;
17850;SDS011;9051;51.548;14.348;2022-08-03T14:22:31;3.08;;;2.88;;
17850;SDS011;9051;51.548;14.348;2022-08-03T14:25:03;2.92;;;2.70;;
17850;SDS011;9051;51.548;14.348;2022-08-03T14:27:37;2.78;;;2.58;;
17850;SDS011;9051;51.548;14.348;2022-08-03T14:30:10;2.88;;;2.67;;
17850;SDS011;9051;51.548;14.348;2022-08-03T14:32:42;3.10;;;2.80;;
17850;SDS011;9051;51.548;14.348;2022-08-03T14:35:15;3.25;;;2.70;;
17850;SDS011;9051;51.548;14.348;2022-08-03T14:37:47;3.15;;;2.95;;
17850;SDS011;9051;51.548;14.348;2022-08-03T14:40:19;2.75;;;2.45;;
17850;SDS011;9051;51.548;14.348;2022-08-03T14:42:53;3.78;;;2.42;;
17850;SDS011;9051;51.548;14.348;2022-08-03T14:45:25;2.60;;;2.40;;
17850;SDS011;9051;51.548;14.348;2022-08-03T14:47:57;2.78;;;2.58;;
17850;SDS011;9051;51.548;14.348;2022-08-03T14:50:29;3.80;;;2.88;;
17850;SDS011;9051;51.548;14.348;2022-08-03T14:53:01;3.55;;;2.70;;
17850;SDS011;9051;51.548;14.348;2022-08-03T14:55:33;3.92;;;2.65;;
17850;SDS011;9051;51.548;14.348;2022-08-03T14:58:07;2.83;;;2.50;;
17850;SDS011;9051;51.548;14.348;2022-08-03T15:00:39;3.22;;;2.85;;
17850;SDS011;9051;51.548;14.348;2022-08-03T15:03:10;3.15;;;2.85;;
17850;SDS011;9051;51.548;14.348;2022-08-03T15:05:43;3.33;;;3.03;;
17850;SDS011;9051;51.548;14.348;2022-08-03T15:08:15;3.65;;;2.70;;
17850;SDS011;9051;51.548;14.348;2022-08-03T15:10:48;4.68;;;2.95;;
17850;SDS011;9051;51.548;14.348;2022-08-03T15:13:21;2.90;;;2.70;;
17850;SDS011;9051;51.548;14.348;2022-08-03T15:15:54;2.83;;;2.53;;
17850;SDS011;9051;51.548;14.348;2022-08-03T15:18:26;3.00;;;2.80;;
17850;SDS011;9051;51.548;14.348;2022-08-03T15:20:58;3.72;;;2.80;;
17850;SDS011;9051;51.548;14.348;2022-08-03T15:23:31;3.65;;;2.90;;
17850;SDS011;9051;51.548;14.348;2022-08-03T15:26:06;2.90;;;2.70;;
17850;SDS011;9051;51.548;14.348;2022-08-03T15:28:39;2.60;;;2.40;;
17850;SDS011;9051;51.548;14.348;2022-08-03T15:31:11;2.58;;;2.38;;
17850;SDS011;9051;51.548;14.348;2022-08-03T15:33:44;7.97;;;3.05;;
17850;SDS011;9051;51.548;14.348;2022-08-03T15:36:16;3.00;;;2.80;;
17850;SDS011;9051;51.548;14.348;2022-08-03T15:38:50;2.70;;;2.50;;
17850;SDS011;9051;51.548;14.348;2022-08-03T15:41:24;3.25;;;2.47;;
17850;SDS011;9051;51.548;14.348;2022-08-03T15:43:58;2.90;;;2.70;;
17850;SDS011;9051;51.548;14.348;2022-08-03T15:46:31;2.90;;;2.70;;
17850;SDS011;9051;51.548;14.348;2022-08-03T15:49:03;3.03;;;2.70;;
17850;SDS011;9051;51.548;14.348;2022-08-03T15:51:35;2.75;;;2.55;;
17850;SDS011;9051;51.548;14.348;2022-08-03T15:54:08;3.30;;;2.90;;